Time;durP1;ratioP1;P1;durP2;ratioP2;P2;SDS_P1;SDS_P2;PMS_P1;PMS_P2;Temp;Humidity;BMP_temperature;BMP_pressure;BME280_temperature;BME280_humidity;BME280_pressure;Samples;Min_cycle;Max_cycle;Signal;HPM_P1;HPM_P2
2021/08/31 00:00:15;;;;;;;2.03;1.70;;;;;;;15.53;100.00;101259.00;5035762;28;20443;-70
2021/08/31 00:02:41;;;;;;;3.47;2.20;;;;;;;15.50;100.00;101258.84;5053947;28;20454;-72
2021/08/31 00:05:09;;;;;;;4.37;2.63;;;;;;;15.53;100.00;101258.19;5054812;28;20438;-71
2021/08/31 00:07:35;;;;;;;3.90;2.77;;;;;;;15.55;100.00;101262.22;5055145;28;20454;-70
2021/08/31 00:10:02;;;;;;;3.73;2.60;;;;;;;15.56;100.00;101269.28;5055544;28;20452;-71
2021/08/31 00:12:29;;;;;;;3.57;2.30;;;;;;;15.52;100.00;101262.84;5039570;28;20454;-70
2021/08/31 00:14:56;;;;;;;4.63;3.10;;;;;;;15.52;100.00;101260.13;5034208;28;20969;-71
2021/08/31 00:17:23;;;;;;;4.90;3.10;;;;;;;15.58;100.00;101263.50;5035567;28;20462;-71
2021/08/31 00:19:50;;;;;;;3.60;2.27;;;;;;;15.53;100.00;101260.94;5035192;28;20447;-72
2021/08/31 00:22:16;;;;;;;1.87;1.57;;;;;;;15.54;100.00;101254.38;5048520;28;20450;-71
2021/08/31 00:24:43;;;;;;;3.40;2.97;;;;;;;15.58;100.00;101263.50;5054304;28;20442;-71
2021/08/31 00:27:09;;;;;;;5.60;3.40;;;;;;;15.53;100.00;101259.00;5054727;28;20987;-70
2021/08/31 00:29:36;;;;;;;2.30;2.10;;;;;;;15.49;100.00;101257.22;5055202;28;20442;-71
2021/08/31 00:32:04;;;;;;;4.97;2.50;;;;;;;15.54;100.00;101252.44;5043287;28;20975;-71
2021/08/31 00:34:31;;;;;;;3.90;2.70;;;;;;;15.54;100.00;101252.44;5033821;28;21014;-70
2021/08/31 00:36:57;;;;;;;5.17;2.90;;;;;;;15.50;100.00;101256.13;5041074;28;20979;-71
2021/08/31 00:39:24;;;;;;;7.40;4.00;;;;;;;15.52;100.00;101253.88;5054980;28;20454;-71
2021/08/31 00:41:50;;;;;;;2.90;2.47;;;;;;;15.56;100.00;101246.66;5054877;28;20438;-70
2021/08/31 00:44:19;;;;;;;5.03;3.27;;;;;;;15.54;100.00;101244.25;5054038;28;20441;-70
2021/08/31 00:46:46;;;;;;;4.10;3.17;;;;;;;15.50;100.00;101242.47;5049539;28;20486;-72
2021/08/31 00:49:14;;;;;;;3.60;3.10;;;;;;;15.51;100.00;101255.00;5036919;28;20448;-70
2021/08/31 00:51:41;;;;;;;8.80;3.20;;;;;;;15.55;100.00;101245.03;5034735;28;20450;-71
2021/08/31 00:54:07;;;;;;;4.07;2.47;;;;;;;15.52;100.00;101256.59;5033726;28;20595;-71
2021/08/31 00:56:33;;;;;;;4.60;3.17;;;;;;;15.46;100.00;101253.22;5036363;28;20578;-71
2021/08/31 00:59:00;;;;;;;4.70;2.70;;;;;;;15.41;100.00;101253.38;5054573;28;20448;-70
2021/08/31 01:01:27;;;;;;;5.30;3.27;;;;;;;15.36;100.00;101257.03;5054190;28;20446;-71
2021/08/31 01:03:54;;;;;;;2.37;2.00;;;;;;;15.39;100.00;101255.59;5053582;28;20468;-70
2021/08/31 01:06:22;;;;;;;5.10;2.20;;;;;;;15.45;100.00;101250.78;5053981;28;20890;-72
2021/08/31 01:08:48;;;;;;;4.37;3.03;;;;;;;15.46;100.00;101257.88;5014550;28;20444;-71
2021/08/31 01:11:15;;;;;;;3.60;2.60;;;;;;;15.46;100.00;101253.22;5014348;28;20938;-71
2021/08/31 01:13:43;;;;;;;6.30;3.00;;;;;;;15.39;100.00;101250.13;5013717;28;20484;-70
2021/08/31 01:16:09;;;;;;;5.87;2.60;;;;;;;15.37;100.00;101253.19;5014396;28;20444;-70
2021/08/31 01:18:36;;;;;;;4.90;3.40;;;;;;;15.42;100.00;101254.16;5051403;28;20442;-70
2021/08/31 01:21:02;;;;;;;5.40;3.70;;;;;;;15.42;100.00;101251.44;5054102;28;20442;-70
2021/08/31 01:23:31;;;;;;;3.87;2.83;;;;;;;15.29;100.00;101259.41;5052960;28;20442;-71
2021/08/31 01:25:59;;;;;;;5.10;3.27;;;;;;;15.28;100.00;101255.09;5053918;28;20434;-70
2021/08/31 01:28:29;;;;;;;3.40;2.03;;;;;;;15.28;100.00;101260.56;5036847;28;20462;-70
2021/08/31 01:30:57;;;;;;;3.83;2.97;;;;;;;15.26;100.00;101254.59;5034155;28;20948;-70
2021/08/31 01:33:26;;;;;;;4.80;3.73;;;;;;;15.31;100.00;101248.97;5033100;28;20482;-71
2021/08/31 01:35:53;;;;;;;2.23;2.00;;;;;;;15.34;100.00;101253.81;5033898;28;20440;-70
2021/08/31 01:38:19;;;;;;;3.63;2.83;;;;;;;15.34;100.00;101251.09;5049441;28;20462;-70
2021/08/31 01:40:46;;;;;;;8.33;4.37;;;;;;;15.27;100.00;101256.22;5053708;28;20442;-71
2021/08/31 01:43:21;;;;;;;8.43;2.97;;;;;;;15.26;100.00;101257.31;5053027;28;20443;-71
2021/08/31 01:45:48;;;;;;;5.83;3.27;;;;;;;15.29;100.00;101272.28;5053382;28;20422;-71
2021/08/31 01:48:15;;;;;;;6.23;3.40;;;;;;;15.30;100.00;101263.75;5038014;28;20908;-70
2021/08/31 01:50:41;;;;;;;4.80;3.40;;;;;;;15.32;100.00;101264.25;5033737;28;20451;-70
2021/08/31 01:53:08;;;;;;;4.40;3.30;;;;;;;15.18;100.00;101274.47;5033556;28;20446;-70
2021/08/31 01:55:35;;;;;;;8.60;2.93;;;;;;;15.21;100.00;101270.31;5032509;28;20530;-69
2021/08/31 01:58:02;;;;;;;6.90;4.00;;;;;;;15.28;100.00;101285.13;5034375;28;20474;-71
2021/08/31 02:00:30;;;;;;;3.30;2.77;;;;;;;15.33;100.00;101274.06;5033424;28;20454;-70
2021/08/31 02:02:57;;;;;;;6.00;3.07;;;;;;;15.27;100.00;101283.50;5032986;28;20446;-72
2021/08/31 02:05:24;;;;;;;5.07;2.40;;;;;;;15.29;100.00;101261.34;5041831;28;20446;-71
2021/08/31 02:07:50;;;;;;;5.17;2.40;;;;;;;15.28;100.00;101265.22;5052950;28;20862;-71
2021/08/31 02:10:17;;;;;;;7.83;3.90;;;;;;;15.14;100.00;101274.31;5053324;28;20437;-70
2021/08/31 02:12:43;;;;;;;4.63;2.93;;;;;;;15.16;100.00;101268.53;5052539;28;20441;-71
2021/08/31 02:15:11;;;;;;;3.20;2.53;;;;;;;15.19;100.00;101258.91;5042832;28;20482;-70
2021/08/31 02:17:38;;;;;;;5.90;3.60;;;;;;;15.22;100.00;101263.72;5052318;28;20462;-70
2021/08/31 02:20:07;;;;;;;5.37;2.73;;;;;;;15.14;100.00;101265.31;5053130;28;20441;-71
2021/08/31 02:22:34;;;;;;;3.50;2.50;;;;;;;15.11;100.00;101250.38;5053204;28;20449;-70
2021/08/31 02:25:00;;;;;;;5.20;2.87;;;;;;;15.12;100.00;101267.53;5032514;28;20820;-70
2021/08/31 02:27:27;;;;;;;5.63;2.50;;;;;;;14.97;100.00;101271.50;5033159;28;20462;-70
2021/08/31 02:29:53;;;;;;;5.73;3.60;;;;;;;14.95;100.00;101270.19;5034213;28;20815;-71
2021/08/31 02:32:20;;;;;;;5.53;3.93;;;;;;;14.97;100.00;101263.31;5032840;28;20991;-70
2021/08/31 02:34:48;;;;;;;5.43;3.73;;;;;;;14.93;100.00;101266.97;5031929;28;20483;-71
2021/08/31 02:37:14;;;;;;;4.53;3.60;;;;;;;14.92;100.00;101266.19;5032809;28;20846;-70
2021/08/31 02:39:40;;;;;;;5.73;3.17;;;;;;;14.88;100.00;101260.53;5035474;28;20948;-71
2021/08/31 02:42:07;;;;;;;3.30;2.50;;;;;;;14.84;100.00;101264.22;5052956;28;20442;-70
2021/08/31 02:44:34;;;;;;;5.20;2.47;;;;;;;14.82;100.00;101258.25;5041059;28;20881;-70
2021/08/31 02:47:00;;;;;;;4.43;3.50;;;;;;;14.81;100.00;101252.00;5036162;28;20490;-70
2021/08/31 02:49:27;;;;;;;8.60;3.23;;;;;;;14.79;100.00;101253.44;5037274;28;20446;-71
2021/08/31 02:51:55;;;;;;;4.47;3.00;;;;;;;14.79;100.00;101256.16;5056971;28;20449;-71
2021/08/31 02:54:21;;;;;;;6.80;3.50;;;;;;;14.77;100.00;101258.38;5056078;28;20493;-70
2021/08/31 02:56:47;;;;;;;5.73;3.60;;;;;;;14.79;100.00;101267.88;5056794;28;20462;-72
2021/08/31 02:59:14;;;;;;;4.87;3.07;;;;;;;14.78;100.00;101246.34;5056580;28;20935;-71
2021/08/31 03:02:04;;;;;;;4.20;3.80;;;;;;;14.77;100.00;101250.19;5037810;28;20450;-71
2021/08/31 03:04:31;;;;;;;5.63;3.30;;;;;;;14.69;100.00;101259.94;5052568;28;20464;-70
2021/08/31 03:06:58;;;;;;;6.77;4.00;;;;;;;14.68;100.00;101254.81;5056516;28;20466;-71
2021/08/31 03:09:25;;;;;;;5.00;3.10;;;;;;;14.71;100.00;101248.75;5056314;28;20446;-71
2021/08/31 03:11:51;;;;;;;3.47;3.07;;;;;;;14.71;100.00;101255.00;5037020;28;20455;-70
2021/08/31 03:14:21;;;;;;;7.40;4.20;;;;;;;14.63;100.00;101250.28;5036474;28;20483;-70
2021/08/31 03:16:48;;;;;;;6.40;2.80;;;;;;;14.61;100.00;101247.88;5036436;28;20463;-70
2021/08/31 03:19:14;;;;;;;8.43;3.70;;;;;;;14.61;100.00;101249.81;5036364;28;20451;-71
2021/08/31 03:21:41;;;;;;;5.77;4.67;;;;;;;14.59;100.00;101257.47;5053682;28;20442;-70
2021/08/31 03:24:09;;;;;;;18.73;3.63;;;;;;;14.61;100.00;101255.25;5045245;28;20452;-70
2021/08/31 03:26:35;;;;;;;3.33;2.43;;;;;;;14.64;100.00;101254.63;5035415;28;20830;-71
2021/08/31 03:29:01;;;;;;;4.67;3.23;;;;;;;14.69;100.00;101257.22;5036287;28;20443;-70
2021/08/31 03:31:28;;;;;;;5.03;3.73;;;;;;;14.71;100.00;101265.91;5052108;28;20450;-71
2021/08/31 03:33:54;;;;;;;8.17;4.10;;;;;;;14.79;100.00;101264.34;5055979;28;20489;-71
2021/08/31 03:36:21;;;;;;;10.90;3.00;;;;;;;14.74;100.00;101269.91;5055100;28;20465;-71
2021/08/31 03:38:47;;;;;;;12.60;3.57;;;;;;;14.72;100.00;101278.41;5056042;28;20445;-71
2021/08/31 03:41:15;;;;;;;4.80;2.77;;;;;;;14.69;100.00;101278.22;5041720;28;20948;-70
2021/08/31 03:43:41;;;;;;;7.50;3.30;;;;;;;14.72;100.00;101281.13;5035977;28;20466;-71
2021/08/31 03:46:08;;;;;;;5.17;3.37;;;;;;;14.73;100.00;101288.19;5035070;28;20465;-71
2021/08/31 03:48:34;;;;;;;9.37;3.87;;;;;;;14.71;100.00;101286.91;5036049;28;20439;-70
2021/08/31 03:51:01;;;;;;;7.00;3.40;;;;;;;14.80;100.00;101291.31;5047227;28;20472;-71
2021/08/31 03:53:27;;;;;;;6.53;3.37;;;;;;;14.82;100.00;101283.59;5055194;28;20806;-71
2021/08/31 03:55:53;;;;;;;4.37;2.53;;;;;;;14.79;100.00;101283.44;5054846;28;20482;-70
2021/08/31 03:58:21;;;;;;;4.23;2.60;;;;;;;14.76;100.00;101276.66;5055576;28;20466;-70
2021/08/31 04:00:48;;;;;;;4.57;3.50;;;;;;;14.73;100.00;101279.22;5045822;28;20451;-71
2021/08/31 04:03:14;;;;;;;6.83;4.17;;;;;;;14.67;100.00;101281.28;5035710;28;20450;-70
2021/08/31 04:05:40;;;;;;;4.47;3.07;;;;;;;14.64;100.00;101282.69;5034817;28;20439;-71
2021/08/31 04:08:07;;;;;;;9.07;3.10;;;;;;;14.69;100.00;101275.50;5036295;28;20471;-71
2021/08/31 04:10:33;;;;;;;3.10;2.23;;;;;;;14.68;100.00;101274.69;5055487;28;20442;-71
2021/08/31 04:13:00;;;;;;;4.60;2.53;;;;;;;14.65;100.00;101278.03;5055429;28;20442;-71
2021/08/31 04:15:28;;;;;;;4.53;3.47;;;;;;;14.68;100.00;101274.69;5054515;28;20489;-68
2021/08/31 04:17:54;;;;;;;7.23;3.47;;;;;;;14.63;100.00;101281.09;5055359;28;20465;-70
2021/08/31 04:20:21;;;;;;;4.40;3.17;;;;;;;14.61;100.00;101299.69;5035916;28;20457;-70
2021/08/31 04:22:47;;;;;;;4.40;2.80;;;;;;;14.65;100.00;101305.31;5035283;28;20443;-68
2021/08/31 04:25:13;;;;;;;4.43;3.10;;;;;;;14.68;100.00;101312.06;5034743;28;20443;-71
2021/08/31 04:27:40;;;;;;;3.83;2.80;;;;;;;14.73;100.00;101304.56;5044672;28;20462;-70
2021/08/31 04:30:07;;;;;;;4.03;3.20;;;;;;;14.71;100.00;101298.63;5054780;28;20967;-69
2021/08/31 04:32:35;;;;;;;3.37;3.03;;;;;;;14.74;100.00;101303.47;5055118;28;20442;-70
2021/08/31 04:35:03;;;;;;;16.73;4.33;;;;;;;14.74;100.00;101300.75;5054317;28;20486;-71
2021/08/31 04:37:30;;;;;;;4.97;2.93;;;;;;;14.68;100.00;101304.69;5045965;28;20495;-71
2021/08/31 04:39:57;;;;;;;5.93;3.60;;;;;;;14.68;100.00;101301.97;5034295;28;20960;-71
2021/08/31 04:42:23;;;;;;;8.00;3.67;;;;;;;14.73;100.00;101307.28;5034730;28;20435;-70
2021/08/31 04:44:50;;;;;;;4.83;3.23;;;;;;;14.72;100.00;101310.34;5034555;28;20447;-72
2021/08/31 04:47:17;;;;;;;4.23;2.90;;;;;;;14.75;100.00;101310.53;5040171;28;20474;-69
2021/08/31 04:49:45;;;;;;;2.90;2.60;;;;;;;14.80;100.00;101313.13;5054716;28;20449;-71
2021/08/31 04:52:11;;;;;;;5.63;3.33;;;;;;;14.74;100.00;101308.91;5054400;28;20957;-71
2021/08/31 04:54:37;;;;;;;5.30;3.00;;;;;;;14.78;100.00;101304.44;5054204;28;20485;-71
2021/08/31 04:57:04;;;;;;;4.67;2.50;;;;;;;14.78;100.00;101301.69;5049385;28;20474;-71
2021/08/31 04:59:31;;;;;;;6.87;3.40;;;;;;;14.70;100.00;101307.94;5034615;28;20454;-70
2021/08/31 05:01:58;;;;;;;3.23;2.43;;;;;;;14.74;100.00;101306.19;5035618;28;20459;-71
2021/08/31 05:04:28;;;;;;;4.97;3.60;;;;;;;14.77;100.00;101302.03;5034461;28;20486;-71
2021/08/31 05:06:56;;;;;;;4.80;3.50;;;;;;;14.77;100.00;101308.28;5032614;28;20838;-71
2021/08/31 05:09:22;;;;;;;5.63;3.20;;;;;;;14.76;100.00;101301.22;5034157;28;20439;-70
2021/08/31 05:11:49;;;;;;;8.50;3.73;;;;;;;14.69;100.00;101311.75;5034450;28;20455;-70
2021/08/31 05:14:15;;;;;;;4.60;3.40;;;;;;;14.69;100.00;101313.69;5034341;28;20494;-70
2021/08/31 05:16:42;;;;;;;4.90;2.80;;;;;;;14.66;100.00;101314.31;5033852;28;20459;-75
2021/08/31 05:19:09;;;;;;;6.37;2.80;;;;;;;14.71;100.00;101314.19;5034475;28;20458;-70
2021/08/31 05:21:36;;;;;;;6.80;3.67;;;;;;;14.74;100.00;101308.91;5034344;28;20443;-70
2021/08/31 05:24:04;;;;;;;5.70;2.53;;;;;;;14.77;100.00;101308.28;5034164;28;20451;-70
2021/08/31 05:26:31;;;;;;;4.93;2.93;;;;;;;14.82;100.00;101310.06;5044989;28;20474;-70
2021/08/31 05:28:57;;;;;;;4.30;2.53;;;;;;;14.82;100.00;101316.31;5052443;28;20488;-69
2021/08/31 05:31:24;;;;;;;4.13;3.13;;;;;;;14.79;100.00;101314.25;5053900;28;20446;-70
2021/08/31 05:33:50;;;;;;;4.03;2.63;;;;;;;14.87;100.00;101310.75;5053469;28;20457;-71
2021/08/31 05:36:17;;;;;;;5.40;3.77;;;;;;;14.91;100.00;101307.41;5043367;28;20482;-71
2021/08/31 05:38:43;;;;;;;5.57;3.97;;;;;;;14.92;100.00;101315.28;5034093;28;20437;-71
2021/08/31 05:41:11;;;;;;;7.03;4.30;;;;;;;14.94;100.00;101315.75;5033932;28;20442;-69
2021/08/31 05:43:39;;;;;;;3.20;2.40;;;;;;;14.93;100.00;101318.81;5032868;28;20479;-71
2021/08/31 05:46:05;;;;;;;3.93;2.20;;;;;;;15.01;100.00;101313.41;5041450;28;20457;-73
2021/08/31 05:48:32;;;;;;;4.90;3.17;;;;;;;15.05;100.00;101319.03;5055328;28;20504;-73
2021/08/31 05:51:02;;;;;;;6.73;4.40;;;;;;;15.12;100.00;101328.38;5053677;28;20526;-73
2021/08/31 05:53:29;;;;;;;3.20;2.77;;;;;;;15.20;100.00;101331.47;5052735;28;20454;-74
2021/08/31 05:55:56;;;;;;;6.63;3.80;;;;;;;15.15;100.00;101326.97;5047153;28;20518;-73
2021/08/31 05:58:23;;;;;;;5.60;3.50;;;;;;;15.18;100.00;101323.59;5033743;28;20550;-72
2021/08/31 06:00:53;;;;;;;7.77;3.20;;;;;;;15.26;100.00;101330.22;5033227;28;20459;-74
2021/08/31 06:03:19;;;;;;;8.17;3.40;;;;;;;15.32;100.00;101329.78;5032378;28;20958;-74
2021/08/31 06:05:46;;;;;;;6.30;3.33;;;;;;;15.27;100.00;101323.63;5037406;28;20533;-74
2021/08/31 06:08:13;;;;;;;5.60;3.37;;;;;;;15.27;100.00;101332.66;5053018;28;20492;-73
2021/08/31 06:10:42;;;;;;;4.70;3.40;;;;;;;15.14;100.00;101337.06;5052886;28;20454;-73
2021/08/31 06:13:08;;;;;;;5.67;3.70;;;;;;;15.24;100.00;101338.72;5051996;28;20450;-74
2021/08/31 06:15:45;;;;;;;5.23;3.30;;;;;;;15.28;100.00;101333.44;5053049;28;20488;-73
2021/08/31 06:18:17;;;;;;;5.20;3.13;;;;;;;15.26;100.00;101331.00;5052811;28;21017;-73
2021/08/31 06:20:50;;;;;;;4.80;3.03;;;;;;;15.35;100.00;101328.31;5053343;28;20480;-74
2021/08/31 06:23:17;;;;;;;3.50;2.37;;;;;;;15.38;100.00;101333.97;5051794;28;20443;-74
2021/08/31 06:25:44;;;;;;;4.80;2.77;;;;;;;15.38;100.00;101342.16;5053161;28;20438;-73
2021/08/31 06:28:19;;;;;;;4.23;2.50;;;;;;;15.36;100.00;101338.94;5052764;28;20490;-72
2021/08/31 06:30:47;;;;;;;4.97;3.10;;;;;;;15.39;100.00;101332.03;5053259;28;20426;-73
2021/08/31 06:33:19;;;;;;;5.60;3.20;;;;;;;15.48;100.00;101345.72;5048424;28;20435;-72
2021/08/31 06:35:46;;;;;;;5.60;3.10;;;;;;;15.53;100.00;101346.38;5032835;28;20976;-72
2021/08/31 06:38:13;;;;;;;3.07;2.37;;;;;;;15.59;100.00;101342.41;5033162;28;20536;-71
2021/08/31 06:40:39;;;;;;;6.03;2.80;;;;;;;15.58;100.00;101343.53;5033179;28;20509;-72
2021/08/31 06:43:09;;;;;;;4.53;2.60;;;;;;;15.62;100.00;101341.75;5032781;28;20532;-73
2021/08/31 06:45:35;;;;;;;4.27;3.13;;;;;;;15.60;100.00;101348.66;5032441;28;20554;-73
2021/08/31 06:48:07;;;;;;;4.10;3.37;;;;;;;15.66;100.00;101355.63;5032765;28;20623;-73
2021/08/31 06:50:33;;;;;;;4.80;3.43;;;;;;;15.69;100.00;101354.19;5036306;28;20477;-73
2021/08/31 06:53:03;;;;;;;4.00;2.30;;;;;;;15.73;100.00;101350.50;5052415;28;20438;-73
2021/08/31 06:55:33;;;;;;;4.90;2.17;;;;;;;15.77;100.00;101364.34;5052790;28;20535;-72
2021/08/31 06:57:59;;;;;;;7.67;4.87;;;;;;;15.76;100.00;101359.97;5046532;28;20471;-74
2021/08/31 07:00:26;;;;;;;9.60;2.70;;;;;;;15.87;100.00;101356.66;5033521;28;20524;-77
2021/08/31 07:02:55;;;;;;;6.23;3.80;;;;;;;15.97;100.00;101361.00;5032414;28;20480;-70
2021/08/31 07:05:23;;;;;;;3.57;2.60;;;;;;;16.01;100.00;101361.19;5032139;28;20478;-71
2021/08/31 07:07:50;;;;;;;4.73;3.20;;;;;;;15.96;100.00;101356.66;5036750;28;20508;-70
2021/08/31 07:10:16;;;;;;;8.80;3.77;;;;;;;16.09;100.00;101363.13;5052731;28;20449;-70
2021/08/31 07:12:43;;;;;;;4.50;2.87;;;;;;;16.20;100.00;101367.16;5050920;28;20525;-70
2021/08/31 07:15:12;;;;;;;4.70;2.93;;;;;;;16.37;100.00;101371.84;5052675;28;20478;-70
2021/08/31 07:17:39;;;;;;;3.87;2.80;;;;;;;16.65;100.00;101375.06;5049558;28;20458;-73
2021/08/31 07:20:09;;;;;;;3.27;2.47;;;;;;;16.87;100.00;101369.44;5032636;28;20438;-71
2021/08/31 07:22:37;;;;;;;4.90;3.20;;;;;;;17.12;100.00;101378.72;5032386;28;20805;-72
2021/08/31 07:25:10;;;;;;;5.40;3.27;;;;;;;17.28;100.00;101381.75;5032038;28;20474;-71
2021/08/31 07:27:39;;;;;;;6.70;3.23;;;;;;;17.30;98.22;101384.97;5048345;28;20507;-72
2021/08/31 07:30:08;;;;;;;4.07;2.70;;;;;;;17.33;97.51;101384.31;5055084;28;20442;-71
2021/08/31 07:32:35;;;;;;;6.17;3.97;;;;;;;17.39;97.68;101387.66;5054644;28;20453;-73
2021/08/31 07:35:04;;;;;;;5.97;3.40;;;;;;;17.42;97.79;101386.22;5035863;28;20482;-74
2021/08/31 07:37:40;;;;;;;5.97;3.17;;;;;;;17.48;97.49;101384.91;5035826;28;21014;-74
2021/08/31 07:40:09;;;;;;;3.57;1.97;;;;;;;17.57;96.72;101394.69;5035877;28;20481;-74
2021/08/31 07:42:48;;;;;;;4.50;2.80;;;;;;;17.57;96.11;101385.66;5037439;28;20443;-75
2021/08/31 07:45:18;;;;;;;4.97;3.33;;;;;;;17.55;96.73;101391.50;5055231;28;20520;-69
2021/08/31 07:47:51;;;;;;;8.40;4.30;;;;;;;17.60;96.52;101394.03;5055660;28;21011;-75
2021/08/31 07:50:18;;;;;;;5.37;3.33;;;;;;;17.61;95.90;101394.84;5055782;28;20481;-74
2021/08/31 07:52:48;;;;;;;4.17;2.50;;;;;;;17.56;94.54;101392.28;5053253;28;20854;-71
2021/08/31 07:55:29;;;;;;;3.10;2.60;;;;;;;17.52;94.70;101399.56;5035275;28;20518;-73
2021/08/31 07:57:56;;;;;;;6.10;3.27;;;;;;;17.34;94.65;101402.34;5035597;28;20467;-72
2021/08/31 08:00:29;;;;;;;3.80;2.70;;;;;;;17.47;96.59;101403.28;5040674;28;20485;-72
2021/08/31 08:02:55;;;;;;;5.17;3.10;;;;;;;17.55;96.94;101412.59;5054766;28;20465;-73
2021/08/31 08:05:22;;;;;;;7.33;2.97;;;;;;;17.60;95.70;101407.75;5055692;28;20484;-73
2021/08/31 08:07:48;;;;;;;6.10;3.70;;;;;;;17.69;95.29;101412.38;5055327;28;20501;-73
2021/08/31 08:10:15;;;;;;;7.00;3.10;;;;;;;17.78;95.22;101415.94;5051536;28;20478;-73
2021/08/31 08:12:46;;;;;;;6.63;3.60;;;;;;;17.99;95.16;101426.97;5035852;28;20447;-72
2021/08/31 08:15:15;;;;;;;4.17;2.93;;;;;;;18.11;93.22;101424.31;5035967;28;20475;-72
2021/08/31 08:17:48;;;;;;;6.97;4.23;;;;;;;18.23;93.40;101429.06;5051838;28;20554;-73
2021/08/31 08:20:17;;;;;;;3.57;2.63;;;;;;;18.34;91.75;101417.38;5055791;28;20509;-76
2021/08/31 08:22:45;;;;;;;4.13;2.43;;;;;;;18.44;91.19;101426.34;5056800;28;20568;-75
2021/08/31 08:25:20;;;;;;;4.80;2.70;;;;;;;18.49;90.41;101415.97;5039072;28;20479;-76
2021/08/31 08:27:49;;;;;;;5.87;3.07;;;;;;;18.36;90.52;101415.09;5036360;28;20521;-76
2021/08/31 08:30:16;;;;;;;5.87;2.90;;;;;;;18.49;91.51;101417.94;5035842;28;20483;-77
2021/08/31 08:32:45;;;;;;;4.30;3.13;;;;;;;18.52;91.93;101425.50;5043475;28;20458;-77
2021/08/31 08:35:12;;;;;;;4.83;2.23;;;;;;;18.48;90.59;101438.28;5055489;28;20443;-77
2021/08/31 08:37:42;;;;;;;5.27;3.00;;;;;;;18.41;90.57;101444.28;5055724;28;21003;-77
2021/08/31 08:40:14;;;;;;;5.50;3.23;;;;;;;18.34;91.15;101433.84;5055599;28;21031;-76
2021/08/31 08:42:44;;;;;;;9.47;4.60;;;;;;;18.29;91.23;101436.00;5047159;28;20917;-77
2021/08/31 08:45:18;;;;;;;4.00;3.00;;;;;;;18.42;91.82;101440.41;5035537;28;20479;-77
2021/08/31 08:47:45;;;;;;;5.50;3.10;;;;;;;18.55;89.96;101444.00;5035642;28;20523;-77
2021/08/31 08:50:12;;;;;;;4.83;2.90;;;;;;;18.45;89.97;101444.41;5043944;28;20538;-77
2021/08/31 08:52:41;;;;;;;4.33;3.03;;;;;;;18.36;90.55;101434.31;5053182;28;20811;-77
2021/08/31 08:55:09;;;;;;;4.63;3.30;;;;;;;18.37;91.38;101433.19;5053817;28;20443;-76
2021/08/31 08:57:43;;;;;;;4.10;2.40;;;;;;;18.44;91.22;101431.84;5054504;28;20462;-76
2021/08/31 09:00:16;;;;;;;4.50;2.97;;;;;;;18.44;89.88;101432.66;5047271;28;20446;-76
2021/08/31 09:02:54;;;;;;;6.60;3.43;;;;;;;18.47;90.45;101423.75;5034720;28;20501;-76
2021/08/31 09:05:34;;;;;;;6.10;3.03;;;;;;;18.42;90.51;101426.72;5034822;28;20427;-74
2021/08/31 09:08:08;;;;;;;5.87;2.70;;;;;;;18.60;90.54;101424.63;5034747;28;20447;-77
2021/08/31 09:10:35;;;;;;;4.10;3.00;;;;;;;18.69;91.00;101430.88;5045406;28;20490;-76
2021/08/31 09:13:05;;;;;;;6.83;3.80;;;;;;;18.77;87.90;101432.75;5054161;28;20485;-77
2021/08/31 09:15:38;;;;;;;3.87;3.00;;;;;;;18.86;87.72;101432.69;5054052;28;21002;-76
2021/08/31 09:18:24;;;;;;;6.17;2.50;;;;;;;18.96;88.99;101431.47;5042112;28;20479;-78
2021/08/31 09:21:02;;;;;;;5.87;3.27;;;;;;;19.23;89.07;101436.38;5034419;28;20438;-76
2021/08/31 09:23:30;;;;;;;7.13;3.90;;;;;;;19.34;86.19;101431.22;5034070;28;20431;-76
2021/08/31 09:26:04;;;;;;;5.83;4.17;;;;;;;19.38;85.21;101438.47;5034031;28;20859;-75
2021/08/31 09:28:35;;;;;;;7.50;3.10;;;;;;;19.57;85.64;101437.16;5051301;28;20435;-76
2021/08/31 09:31:07;;;;;;;4.60;2.87;;;;;;;19.71;85.09;101440.41;5054063;28;20445;-76
2021/08/31 09:33:36;;;;;;;4.10;2.90;;;;;;;19.87;82.82;101435.81;5054286;28;20427;-77
2021/08/31 09:36:07;;;;;;;6.67;4.37;;;;;;;19.96;83.76;101440.41;5054095;28;20477;-75
2021/08/31 09:38:53;;;;;;;6.00;3.67;;;;;;;19.93;82.23;101449.34;5054722;28;20411;-77
2021/08/31 09:41:30;;;;;;;3.60;3.00;;;;;;;20.09;82.28;101445.53;5054182;28;20853;-76
2021/08/31 09:43:58;;;;;;;6.97;3.83;;;;;;;20.32;82.48;101447.81;5052963;28;20498;-76
2021/08/31 09:46:45;;;;;;;8.97;3.70;;;;;;;20.26;82.75;101444.50;5053689;28;20458;-77
2021/08/31 09:49:19;;;;;;;4.83;3.43;;;;;;;20.26;81.06;101455.50;5014726;28;20439;-77
2021/08/31 09:52:00;;;;;;;8.70;3.97;;;;;;;20.22;80.91;101449.09;5013892;28;20448;-77
2021/08/31 09:54:26;;;;;;;3.77;2.57;;;;;;;20.15;83.51;101448.88;5013468;28;20427;-77
2021/08/31 09:56:52;;;;;;;3.57;2.80;;;;;;;20.06;80.64;101461.97;5019655;28;20502;-76
2021/08/31 09:59:20;;;;;;;4.87;3.30;;;;;;;20.04;79.62;101458.72;5053705;28;20501;-77
2021/08/31 10:01:48;;;;;;;5.17;3.57;;;;;;;19.99;80.96;101464.47;5053111;28;20447;-76
2021/08/31 10:04:14;;;;;;;5.30;3.33;;;;;;;20.04;81.62;101451.28;5052499;28;20446;-76
2021/08/31 10:06:41;;;;;;;5.17;3.20;;;;;;;20.01;82.17;101454.75;5034456;28;20463;-76
2021/08/31 10:09:09;;;;;;;4.57;3.17;;;;;;;19.93;82.06;101457.59;5034517;28;20867;-79
2021/08/31 10:11:36;;;;;;;5.80;3.40;;;;;;;19.89;83.23;101466.53;5035031;28;20534;-77
2021/08/31 10:14:03;;;;;;;4.80;3.23;;;;;;;19.86;82.75;101458.97;5033682;28;20447;-78
2021/08/31 10:16:31;;;;;;;4.93;2.77;;;;;;;19.81;82.36;101466.63;5051882;28;20493;-72
2021/08/31 10:18:59;;;;;;;5.17;3.33;;;;;;;19.86;82.52;101461.72;5053594;28;20487;-73
2021/08/31 10:21:26;;;;;;;5.67;3.23;;;;;;;19.90;83.19;101464.56;5041437;28;20474;-70
2021/08/31 10:23:53;;;;;;;4.30;2.90;;;;;;;19.99;83.15;101475.47;5042351;28;20457;-71
2021/08/31 10:26:28;;;;;;;4.43;3.00;;;;;;;19.87;82.88;101468.81;5053129;28;20438;-71
2021/08/31 10:29:27;;;;;;;6.03;3.67;;;;;;;19.97;82.60;101464.03;5052831;28;20946;-71
2021/08/31 10:31:56;;;;;;;6.40;3.50;;;;;;;20.12;83.34;101461.38;5053409;28;20900;-72
2021/08/31 10:34:44;;;;;;;6.13;3.50;;;;;;;20.31;84.12;101473.75;5038112;28;20451;-71
2021/08/31 10:37:13;;;;;;;5.57;3.20;;;;;;;20.33;84.47;101475.00;5033003;28;20487;-73
2021/08/31 10:39:48;;;;;;;6.53;3.43;;;;;;;20.46;84.31;101475.00;5033215;28;20455;-73
2021/08/31 10:42:40;;;;;;;4.20;2.73;;;;;;;20.45;83.60;101476.13;5033243;28;20461;-72
2021/08/31 10:45:28;;;;;;;4.30;3.33;;;;;;;20.45;83.30;101478.88;5052282;28;20820;-72
2021/08/31 10:47:55;;;;;;;6.00;3.47;;;;;;;20.58;83.12;101477.75;5052640;28;20497;-72
2021/08/31 10:50:24;;;;;;;4.50;2.90;;;;;;;20.68;82.82;101474.53;5052743;28;20962;-73
2021/08/31 10:53:04;;;;;;;7.03;3.33;;;;;;;20.88;82.85;101479.03;5051061;28;21003;-74
2021/08/31 10:55:42;;;;;;;8.50;3.77;;;;;;;20.96;80.29;101479.25;5032912;28;20475;-73
2021/08/31 10:58:11;;;;;;;5.47;2.93;;;;;;;20.79;76.85;101486.66;5032905;28;20498;-73
2021/08/31 11:00:53;;;;;;;4.83;3.07;;;;;;;20.92;79.33;101488.22;5032740;28;20443;-73
2021/08/31 11:03:39;;;;;;;5.37;3.60;;;;;;;20.85;78.08;101492.72;5036857;28;20446;-73
2021/08/31 11:06:19;;;;;;;4.20;2.70;;;;;;;20.74;77.85;101489.66;5056434;28;20866;-72
2021/08/31 11:09:03;;;;;;;5.37;3.53;;;;;;;20.74;77.57;101495.16;5056457;28;20466;-72
2021/08/31 11:11:29;;;;;;;4.33;2.90;;;;;;;20.92;78.49;101492.94;5056284;28;20433;-72
2021/08/31 11:13:57;;;;;;;4.90;3.03;;;;;;;20.86;76.66;101503.41;5056126;28;20442;-73
2021/08/31 11:16:24;;;;;;;4.17;2.70;;;;;;;20.59;76.80;101501.41;5055899;28;20890;-71
2021/08/31 11:18:51;;;;;;;6.03;3.27;;;;;;;20.41;79.87;101504.38;5056604;28;20442;-72
2021/08/31 11:21:19;;;;;;;5.03;3.50;;;;;;;20.33;79.39;101504.47;5056655;28;20448;-73
2021/08/31 11:23:46;;;;;;;4.90;3.23;;;;;;;20.31;80.78;101512.25;5055467;28;20438;-72
2021/08/31 11:26:22;;;;;;;11.00;3.23;;;;;;;20.20;77.60;101519.38;5039473;28;20530;-73